Time;durP1;ratioP1;P1;durP2;ratioP2;P2;SDS_P1;SDS_P2;PMS_P1;PMS_P2;Temp;Humidity;BMP_temperature;BMP_pressure;BME280_temperature;BME280_humidity;BME280_pressure;Samples;Min_cycle;Max_cycle;Signal;HPM_P1;HPM_P2
2021/10/11 00:00:05;;;;;;;37.90;16.52;;;;;;;-141.50;100.00;63355.56;4936966;29;20047;-80
2021/10/11 00:02:32;;;;;;;35.95;16.67;;;;;;;-141.50;100.00;63355.56;4937028;29;20046;-78
2021/10/11 00:04:59;;;;;;;40.88;17.05;;;;;;;-141.50;100.00;63355.56;4934785;29;20388;-79
2021/10/11 00:07:26;;;;;;;33.40;16.58;;;;;;;-141.50;100.00;63355.56;4952001;29;20039;-79
2021/10/11 00:09:52;;;;;;;34.85;16.75;;;;;;;-141.50;100.00;63355.56;4954457;29;20043;-80
2021/10/11 00:12:24;;;;;;;31.15;15.13;;;;;;;-141.50;100.00;63355.56;4936999;29;20410;-79
2021/10/11 00:14:51;;;;;;;32.90;16.40;;;;;;;-141.50;100.00;63355.56;4951622;29;20047;-79
2021/10/11 00:17:19;;;;;;;32.65;17.40;;;;;;;-141.50;100.00;63355.56;4999141;23;20067;-81
2021/10/11 00:19:50;;;;;;;33.45;16.17;;;;;;;-141.50;100.00;63355.56;4954096;28;20109;-80
2021/10/11 00:22:21;;;;;;;32.83;17.02;;;;;;;-141.50;100.00;63355.56;4938902;28;20133;-81
2021/10/11 00:24:48;;;;;;;39.00;17.30;;;;;;;-141.50;100.00;63355.56;4954272;28;20051;-78
2021/10/11 00:27:15;;;;;;;33.50;16.40;;;;;;;-141.50;100.00;63355.56;4938017;28;20503;-80
2021/10/11 00:29:41;;;;;;;32.65;16.48;;;;;;;-141.50;100.00;63355.56;4938391;28;20530;-79
2021/10/11 00:32:08;;;;;;;30.95;16.05;;;;;;;-141.50;100.00;63355.56;4937964;28;20154;-80
2021/10/11 00:34:36;;;;;;;34.42;16.58;;;;;;;-141.50;100.00;63355.56;4938441;28;20050;-80
2021/10/11 00:37:03;;;;;;;32.92;16.70;;;;;;;-141.50;100.00;63355.56;4938035;28;20058;-79
2021/10/11 00:39:31;;;;;;;31.90;15.65;;;;;;;-141.50;100.00;63355.56;4938314;28;20059;-78
2021/10/11 00:41:58;;;;;;;31.88;15.23;;;;;;;-141.50;100.00;63355.56;4938601;28;20043;-80
2021/10/11 00:44:25;;;;;;;34.45;16.23;;;;;;;-141.50;100.00;63355.56;4938193;28;20047;-80
2021/10/11 00:46:51;;;;;;;33.70;15.57;;;;;;;-141.50;100.00;63355.56;4937464;28;20053;-80
2021/10/11 00:49:19;;;;;;;32.30;15.23;;;;;;;-141.50;100.00;63355.56;4938870;28;20097;-79
2021/10/11 00:51:46;;;;;;;30.90;14.82;;;;;;;-141.50;100.00;63355.56;4954585;28;20073;-80
2021/10/11 00:54:14;;;;;;;31.77;15.18;;;;;;;-141.50;100.00;63355.56;4938599;28;20047;-79
2021/10/11 00:56:41;;;;;;;35.42;14.07;;;;;;;-141.50;100.00;63355.56;4938388;28;20081;-79
2021/10/11 00:59:09;;;;;;;29.48;14.30;;;;;;;-141.50;100.00;63355.56;4954257;28;20093;-79
2021/10/11 01:01:35;;;;;;;31.52;14.75;;;;;;;-141.50;100.00;63355.56;4938415;28;20043;-80
2021/10/11 01:04:06;;;;;;;28.88;14.20;;;;;;;-141.50;100.00;63355.56;4937714;28;20109;-79
2021/10/11 01:06:39;;;;;;;30.40;14.05;;;;;;;-141.50;100.00;63355.56;4937887;28;20072;-79
2021/10/11 01:09:07;;;;;;;27.08;14.20;;;;;;;-141.50;100.00;63355.56;4937889;28;20353;-78
2021/10/11 01:11:36;;;;;;;35.72;14.93;;;;;;;-141.50;100.00;63355.56;4938315;28;20093;-80
2021/10/11 01:14:03;;;;;;;29.00;14.23;;;;;;;-141.50;100.00;63355.56;4937857;28;20166;-80
2021/10/11 01:16:31;;;;;;;31.58;14.15;;;;;;;-141.50;100.00;63355.56;4937817;28;20045;-80
2021/10/11 01:18:58;;;;;;;30.25;13.73;;;;;;;-141.50;100.00;63355.56;4938485;28;20362;-78
2021/10/11 01:21:26;;;;;;;29.83;13.55;;;;;;;-141.50;100.00;63355.56;4938981;28;20078;-78
2021/10/11 01:23:54;;;;;;;27.75;12.82;;;;;;;-141.50;100.00;63355.56;4938160;28;20057;-79
2021/10/11 01:26:21;;;;;;;24.30;12.57;;;;;;;-141.50;100.00;63355.56;4938269;28;20137;-81
2021/10/11 01:28:48;;;;;;;29.48;13.15;;;;;;;-141.50;100.00;63355.56;4938368;28;20078;-79
2021/10/11 01:31:15;;;;;;;28.05;13.70;;;;;;;-141.50;100.00;63355.56;4939173;28;20055;-79
2021/10/11 01:33:42;;;;;;;22.20;12.38;;;;;;;-141.50;100.00;63355.56;4941316;28;20058;-81
2021/10/11 01:36:09;;;;;;;25.95;13.13;;;;;;;-141.50;100.00;63355.56;4941416;28;20070;-80
2021/10/11 01:38:35;;;;;;;25.40;12.85;;;;;;;-141.50;100.00;63355.56;4941645;28;20594;-80
2021/10/11 01:41:02;;;;;;;25.27;12.30;;;;;;;-141.50;100.00;63355.56;4941847;28;20046;-80
2021/10/11 01:43:29;;;;;;;23.75;12.07;;;;;;;-141.50;100.00;63355.56;4941272;28;20524;-80
2021/10/11 01:45:56;;;;;;;22.70;11.75;;;;;;;-141.50;100.00;63355.56;4941541;28;20074;-79
2021/10/11 01:48:23;;;;;;;19.48;11.05;;;;;;;-141.50;100.00;63355.56;4930381;29;20039;-78
2021/10/11 01:50:49;;;;;;;22.60;11.75;;;;;;;-141.50;100.00;63355.56;4937416;29;20579;-81
2021/10/11 01:53:16;;;;;;;22.58;11.18;;;;;;;-141.50;100.00;63355.56;4922072;29;20154;-79
2021/10/11 01:55:42;;;;;;;18.77;10.90;;;;;;;-141.50;100.00;63355.56;4937379;29;20106;-79
2021/10/11 01:58:09;;;;;;;21.13;9.88;;;;;;;-141.50;100.00;63355.56;4939287;28;20051;-82
2021/10/11 02:00:36;;;;;;;21.00;10.70;;;;;;;-141.50;100.00;63355.56;4941321;28;20074;-79
2021/10/11 02:03:06;;;;;;;20.83;9.98;;;;;;;-141.50;100.00;63355.56;4940409;28;20057;-78
2021/10/11 02:05:34;;;;;;;22.33;10.02;;;;;;;-141.50;100.00;63355.56;4941233;28;20081;-79
2021/10/11 02:08:02;;;;;;;22.67;9.80;;;;;;;-141.50;100.00;63355.56;4940573;28;20047;-79
2021/10/11 02:10:30;;;;;;;20.50;10.98;;;;;;;-141.50;100.00;63355.56;4941226;28;20059;-76
2021/10/11 02:12:58;;;;;;;23.70;11.73;;;;;;;-141.50;100.00;63355.56;4956360;28;20058;-79
2021/10/11 02:15:26;;;;;;;21.90;10.38;;;;;;;-141.50;100.00;63355.56;4956913;28;20053;-79
2021/10/11 02:17:53;;;;;;;21.67;10.48;;;;;;;-141.50;100.00;63355.56;4956192;28;20126;-79
2021/10/11 02:20:19;;;;;;;22.92;10.40;;;;;;;-141.50;100.00;63355.56;4940960;28;20217;-79
2021/10/11 02:22:47;;;;;;;25.38;11.70;;;;;;;-141.50;100.00;63355.56;4941431;28;20077;-80
2021/10/11 02:25:15;;;;;;;23.90;11.35;;;;;;;-141.50;100.00;63355.56;4956760;28;20150;-76
2021/10/11 02:27:42;;;;;;;24.33;10.73;;;;;;;-141.50;100.00;63355.56;4956102;28;20453;-78
2021/10/11 02:30:11;;;;;;;23.13;9.95;;;;;;;-141.50;100.00;63355.56;4940565;28;20055;-79
2021/10/11 02:32:39;;;;;;;21.33;10.70;;;;;;;-141.50;100.00;63355.56;4939449;28;20047;-78
2021/10/11 02:35:07;;;;;;;20.83;10.68;;;;;;;-141.50;100.00;63355.56;4941003;28;20137;-79
2021/10/11 02:37:35;;;;;;;19.95;10.35;;;;;;;-141.50;100.00;63355.56;4955994;28;20039;-80
2021/10/11 02:40:03;;;;;;;22.88;10.10;;;;;;;-141.50;100.00;63355.56;4940802;28;20043;-78
2021/10/11 02:42:30;;;;;;;21.13;10.13;;;;;;;-141.50;100.00;63355.56;4952627;28;20069;-79
2021/10/11 02:44:56;;;;;;;19.95;9.75;;;;;;;-141.50;100.00;63355.56;4940642;28;20459;-81
2021/10/11 02:47:23;;;;;;;21.77;9.98;;;;;;;-141.50;100.00;63355.56;4940266;28;20485;-79
2021/10/11 02:49:52;;;;;;;20.10;9.50;;;;;;;-141.50;100.00;63355.56;4956313;28;20078;-79
2021/10/11 02:52:19;;;;;;;23.40;10.23;;;;;;;-141.50;100.00;63355.56;4940283;28;20061;-78
2021/10/11 02:54:45;;;;;;;20.83;10.30;;;;;;;-141.50;100.00;63355.56;4940367;28;20538;-80
2021/10/11 02:57:12;;;;;;;21.65;10.55;;;;;;;-141.50;100.00;63355.56;4939999;28;20047;-78
2021/10/11 02:59:39;;;;;;;19.90;9.57;;;;;;;-141.50;100.00;63355.56;4939995;28;20343;-78
2021/10/11 03:02:06;;;;;;;18.73;9.68;;;;;;;-141.50;100.00;63355.56;4940233;28;20535;-80
2021/10/11 03:04:33;;;;;;;22.67;11.05;;;;;;;-141.50;100.00;63355.56;4956634;28;20496;-79
2021/10/11 03:06:59;;;;;;;24.83;11.48;;;;;;;-141.50;100.00;63355.56;4940259;28;20141;-80
2021/10/11 03:09:26;;;;;;;21.13;10.57;;;;;;;-141.50;100.00;63355.56;4940235;28;20054;-79
2021/10/11 03:11:53;;;;;;;19.80;10.43;;;;;;;-141.50;100.00;63355.56;4940631;28;20046;-81
2021/10/11 03:14:20;;;;;;;22.98;11.80;;;;;;;-141.50;100.00;63355.56;4940576;28;20050;-80
2021/10/11 03:16:46;;;;;;;21.90;10.35;;;;;;;-141.50;100.00;63355.56;4939498;28;20070;-80
2021/10/11 03:19:13;;;;;;;18.23;9.90;;;;;;;-141.50;100.00;63355.56;4956084;28;20093;-77
2021/10/11 03:21:40;;;;;;;19.38;10.48;;;;;;;-141.50;100.00;63355.56;4957047;28;20122;-78
2021/10/11 03:24:06;;;;;;;21.27;10.10;;;;;;;-141.50;100.00;63355.56;4941223;28;20046;-81
2021/10/11 03:26:33;;;;;;;20.58;10.55;;;;;;;-141.50;100.00;63355.56;4939765;28;20117;-79
2021/10/11 03:29:00;;;;;;;22.83;9.70;;;;;;;-141.50;100.00;63355.56;4938754;28;20043;-81
2021/10/11 03:31:27;;;;;;;22.05;10.02;;;;;;;-141.50;100.00;63355.56;4934579;28;20062;-80
2021/10/11 03:33:54;;;;;;;19.92;9.80;;;;;;;-141.50;100.00;63355.56;4937805;28;20431;-80
2021/10/11 03:36:21;;;;;;;23.42;9.68;;;;;;;-141.50;100.00;63355.56;4929864;29;20079;-80
2021/10/11 03:38:47;;;;;;;18.77;9.70;;;;;;;-141.50;100.00;63355.56;4919970;29;20049;-77
2021/10/11 03:41:14;;;;;;;19.27;10.20;;;;;;;-141.50;100.00;63355.56;4920062;29;20051;-79
2021/10/11 03:43:41;;;;;;;20.73;9.63;;;;;;;-141.50;100.00;63355.56;4935989;29;20130;-80
2021/10/11 03:46:07;;;;;;;24.90;10.38;;;;;;;-141.50;100.00;63355.56;4940340;28;20071;-78
2021/10/11 03:48:34;;;;;;;18.70;9.75;;;;;;;-141.50;100.00;63355.56;4930558;28;20063;-77
2021/10/11 03:51:02;;;;;;;19.10;9.63;;;;;;;-141.50;100.00;63355.56;4938429;28;20054;-79
2021/10/11 03:53:28;;;;;;;20.25;9.95;;;;;;;-141.50;100.00;63355.56;4934111;29;20591;-78
2021/10/11 03:55:55;;;;;;;19.35;9.75;;;;;;;-141.50;100.00;63355.56;4935237;29;20078;-81
2021/10/11 03:58:22;;;;;;;20.40;10.15;;;;;;;-141.50;100.00;63355.56;4935202;28;20542;-80
2021/10/11 04:00:50;;;;;;;20.55;10.05;;;;;;;-141.50;100.00;63355.56;4937936;28;20066;-78
2021/10/11 04:03:17;;;;;;;20.02;9.80;;;;;;;-141.50;100.00;63355.56;4932865;29;20088;-79
2021/10/11 04:05:44;;;;;;;17.75;9.25;;;;;;;-141.50;100.00;63355.56;4934675;29;20047;-79
2021/10/11 04:08:18;;;;;;;23.77;10.00;;;;;;;-141.50;100.00;63355.56;4934775;29;20043;-80
2021/10/11 04:13:20;;;;;;;23.63;10.18;;;;;;;-141.50;100.00;63355.56;4934606;29;20512;-80
2021/10/11 04:15:48;;;;;;;18.77;10.27;;;;;;;-141.50;100.00;63355.56;4935747;29;20164;-78
2021/10/11 04:18:16;;;;;;;20.85;10.10;;;;;;;-141.50;100.00;63355.56;4919414;29;20417;-79
2021/10/11 04:20:43;;;;;;;21.35;9.85;;;;;;;-141.50;100.00;63355.56;4919643;29;20067;-78
2021/10/11 04:23:11;;;;;;;21.98;10.45;;;;;;;-141.50;100.00;63355.56;4936324;29;20264;-78
2021/10/11 04:25:37;;;;;;;19.80;9.75;;;;;;;-141.50;100.00;63355.56;4921922;29;20105;-78
2021/10/11 04:28:07;;;;;;;23.13;10.25;;;;;;;-141.50;100.00;63355.56;4920448;29;20047;-78
2021/10/11 04:30:34;;;;;;;21.85;10.10;;;;;;;-141.50;100.00;63355.56;4920665;29;20051;-78
2021/10/11 04:33:01;;;;;;;20.30;10.38;;;;;;;-141.50;100.00;63355.56;4954008;29;20047;-79
2021/10/11 04:35:27;;;;;;;20.67;10.00;;;;;;;-141.50;100.00;63355.56;4954486;29;20047;-79
2021/10/11 04:37:54;;;;;;;19.90;10.48;;;;;;;-141.50;100.00;63355.56;4937540;29;20039;-80
2021/10/11 04:40:21;;;;;;;22.35;10.13;;;;;;;-141.50;100.00;63355.56;4937162;29;20081;-79
2021/10/11 04:42:48;;;;;;;20.55;10.35;;;;;;;-141.50;100.00;63355.56;4921255;29;20055;-80
2021/10/11 04:45:15;;;;;;;24.05;10.63;;;;;;;-141.50;100.00;63355.56;4921137;29;20059;-81
2021/10/11 04:47:41;;;;;;;21.58;10.57;;;;;;;-141.50;100.00;63355.56;4921150;29;20069;-80
2021/10/11 04:50:08;;;;;;;20.05;10.20;;;;;;;-141.50;100.00;63355.56;4938109;29;20047;-80
2021/10/11 04:52:35;;;;;;;21.67;10.13;;;;;;;-141.50;100.00;63355.56;4920671;29;20568;-81
2021/10/11 04:55:03;;;;;;;19.48;10.05;;;;;;;-141.50;100.00;63355.56;4919492;29;20123;-80
2021/10/11 04:57:29;;;;;;;18.17;9.88;;;;;;;-141.50;100.00;63355.56;4932968;28;20109;-80
2021/10/11 04:59:56;;;;;;;24.85;9.90;;;;;;;-141.50;100.00;63355.56;4953890;28;20047;-79
2021/10/11 05:02:23;;;;;;;20.60;9.45;;;;;;;-141.50;100.00;63355.56;4954001;28;20050;-79
2021/10/11 05:04:50;;;;;;;18.88;9.88;;;;;;;-141.50;100.00;63355.56;4953500;28;20125;-80
2021/10/11 05:07:16;;;;;;;20.25;9.93;;;;;;;-141.50;100.00;63355.56;4955432;28;20090;-78
2021/10/11 05:09:44;;;;;;;18.92;9.55;;;;;;;-141.50;100.00;63355.56;4941940;28;20109;-80
2021/10/11 05:12:10;;;;;;;17.13;9.10;;;;;;;-141.50;100.00;63355.56;4956987;28;20138;-78
2021/10/11 05:14:37;;;;;;;20.65;9.35;;;;;;;-141.50;100.00;63355.56;4941987;28;20101;-80
2021/10/11 05:17:04;;;;;;;18.35;8.73;;;;;;;-141.50;100.00;63355.56;4942902;28;20043;-80
2021/10/11 05:19:30;;;;;;;17.23;8.23;;;;;;;-141.50;100.00;63355.56;4959226;28;20054;-78
2021/10/11 05:21:57;;;;;;;16.65;7.55;;;;;;;-141.50;100.00;63355.56;4940156;28;20046;-79
2021/10/11 05:24:25;;;;;;;17.13;7.18;;;;;;;-141.50;100.00;63355.56;4957408;28;20392;-81
2021/10/11 05:26:54;;;;;;;24.65;8.57;;;;;;;-141.50;100.00;63355.56;4942304;28;20051;-78
2021/10/11 05:29:21;;;;;;;13.30;7.53;;;;;;;-141.50;100.00;63355.56;4946002;28;20042;-79
2021/10/11 05:31:48;;;;;;;19.20;7.75;;;;;;;-141.50;100.00;63355.56;4952809;28;20153;-80
2021/10/11 05:34:15;;;;;;;17.70;8.10;;;;;;;-141.50;100.00;63355.56;4954580;28;20173;-79
2021/10/11 05:36:42;;;;;;;16.75;8.20;;;;;;;-141.50;100.00;63355.56;4957476;28;20138;-78
2021/10/11 05:39:09;;;;;;;20.83;7.95;;;;;;;-141.50;100.00;63355.56;4957127;28;20047;-81
2021/10/11 05:41:36;;;;;;;16.38;7.10;;;;;;;-141.50;100.00;63355.56;4965878;28;20148;-79
2021/10/11 05:44:03;;;;;;;15.90;7.95;;;;;;;-141.50;100.00;63355.56;4962974;28;20165;-81
2021/10/11 05:46:30;;;;;;;17.98;7.63;;;;;;;-141.50;100.00;63355.56;4944423;28;20054;-79
2021/10/11 05:49:11;;;;;;;16.05;7.50;;;;;;;-141.50;100.00;63355.56;4956690;28;20078;-80
2021/10/11 05:51:38;;;;;;;16.85;8.18;;;;;;;-141.50;100.00;63355.56;4941905;28;20133;-80
2021/10/11 05:54:05;;;;;;;16.17;7.63;;;;;;;-141.50;100.00;63355.56;4940628;28;20444;-78
2021/10/11 05:56:32;;;;;;;13.00;7.20;;;;;;;-141.50;100.00;63355.56;4942802;28;20051;-78
2021/10/11 05:58:58;;;;;;;20.23;7.35;;;;;;;-141.50;100.00;63355.56;4950795;28;20051;-77
2021/10/11 06:01:25;;;;;;;17.42;7.80;;;;;;;-141.50;100.00;63355.56;4947908;28;20133;-79
2021/10/11 06:03:52;;;;;;;16.48;7.93;;;;;;;-141.50;100.00;63355.56;4946772;28;20067;-78
2021/10/11 06:06:18;;;;;;;21.02;7.47;;;;;;;-141.50;100.00;63355.56;4956892;28;20054;-78
2021/10/11 06:08:45;;;;;;;18.58;7.85;;;;;;;-141.50;100.00;63355.56;4956530;28;20314;-79
2021/10/11 06:11:16;;;;;;;17.00;7.88;;;;;;;-141.50;100.00;63355.56;4956312;28;20448;-81
2021/10/11 06:13:44;;;;;;;15.73;8.02;;;;;;;-141.50;100.00;63355.56;4955299;28;20146;-79
2021/10/11 06:16:11;;;;;;;17.63;7.75;;;;;;;-141.50;100.00;63355.56;4972040;28;20061;-79
2021/10/11 06:18:37;;;;;;;19.75;7.88;;;;;;;-141.50;100.00;63355.56;4975127;23;20133;-84
2021/10/11 06:21:05;;;;;;;17.95;8.15;;;;;;;-141.50;100.00;63355.56;4947390;28;20046;-78
2021/10/11 06:23:32;;;;;;;18.90;8.07;;;;;;;-141.50;100.00;63355.56;4984137;28;20046;-80
2021/10/11 06:25:59;;;;;;;15.57;7.55;;;;;;;-141.50;100.00;63355.56;4979727;28;20109;-82
2021/10/11 06:28:29;;;;;;;16.98;7.75;;;;;;;-141.50;100.00;63355.56;4968005;28;20053;-82
2021/10/11 06:30:56;;;;;;;20.77;8.13;;;;;;;-141.50;100.00;63355.56;4967873;28;20047;-83
2021/10/11 06:33:24;;;;;;;19.67;7.50;;;;;;;-141.50;100.00;63355.56;4966108;28;20042;-80
2021/10/11 06:35:51;;;;;;;16.90;7.95;;;;;;;-141.50;100.00;63355.56;4961760;28;20470;-83
2021/10/11 06:38:17;;;;;;;16.15;7.68;;;;;;;-141.50;100.00;63355.56;4961452;28;20549;-84
2021/10/11 06:40:47;;;;;;;16.33;8.10;;;;;;;-141.50;100.00;63355.56;4979848;28;20039;-83
2021/10/11 06:43:14;;;;;;;23.33;8.60;;;;;;;-141.50;100.00;63355.56;4956737;28;20173;-83
2021/10/11 06:45:41;;;;;;;18.20;7.70;;;;;;;-141.50;100.00;63355.56;4975093;28;20053;-80
2021/10/11 06:48:07;;;;;;;14.02;7.70;;;;;;;-141.50;100.00;63355.56;4958444;28;20047;-82
2021/10/11 06:50:35;;;;;;;18.67;8.13;;;;;;;-141.50;100.00;63355.56;4975849;28;20587;-80
2021/10/11 06:53:02;;;;;;;27.15;8.20;;;;;;;-141.50;100.00;63355.56;4976007;28;20039;-82
2021/10/11 06:55:29;;;;;;;16.65;7.95;;;;;;;-141.50;100.00;63355.56;4960132;28;20039;-84
2021/10/11 06:58:00;;;;;;;15.68;8.27;;;;;;;-141.50;100.00;63355.56;4943694;28;20069;-80
2021/10/11 07:00:26;;;;;;;20.38;9.13;;;;;;;-141.50;100.00;63355.56;4976810;28;20035;-82
2021/10/11 07:02:53;;;;;;;18.58;9.00;;;;;;;-141.50;100.00;63355.56;4959450;28;20116;-83
2021/10/11 07:05:19;;;;;;;19.27;9.65;;;;;;;-141.50;100.00;63355.56;4959567;28;20594;-81
2021/10/11 07:07:47;;;;;;;19.63;8.65;;;;;;;-141.50;100.00;63355.56;4958643;28;20535;-82
2021/10/11 07:10:14;;;;;;;17.35;8.77;;;;;;;-141.50;100.00;63355.56;4984762;28;20039;-79
2021/10/11 07:12:41;;;;;;;17.90;8.48;;;;;;;-141.50;100.00;63355.56;4995437;28;20046;-82
2021/10/11 07:15:19;;;;;;;17.40;9.05;;;;;;;-141.50;100.00;63355.56;4980122;28;20116;-81
2021/10/11 07:17:46;;;;;;;18.02;9.00;;;;;;;-141.50;100.00;63355.56;4978564;28;20054;-81
2021/10/11 07:20:12;;;;;;;23.20;9.45;;;;;;;-141.50;100.00;63355.56;4978615;28;20413;-83
2021/10/11 07:22:39;;;;;;;19.15;9.05;;;;;;;-141.50;100.00;63355.56;4999638;28;20050;-82
2021/10/11 07:25:06;;;;;;;24.15;9.50;;;;;;;-141.50;100.00;63355.56;4992972;28;20475;-82
2021/10/11 07:27:34;;;;;;;20.65;11.00;;;;;;;-141.50;100.00;63355.56;4983190;28;20114;-80
2021/10/11 07:30:01;;;;;;;24.33;11.85;;;;;;;-141.50;100.00;63355.56;4980126;28;20066;-81
2021/10/11 07:32:28;;;;;;;30.65;12.25;;;;;;;-141.50;100.00;63355.56;4982011;28;20047;-82
2021/10/11 07:34:54;;;;;;;26.40;12.18;;;;;;;-141.50;100.00;63355.56;4977552;28;20051;-83
2021/10/11 07:37:21;;;;;;;24.80;13.02;;;;;;;-141.50;100.00;63355.56;4975014;28;20050;-83
2021/10/11 07:39:50;;;;;;;26.63;12.55;;;;;;;-141.50;100.00;63355.56;4974758;28;20035;-82
2021/10/11 07:42:17;;;;;;;29.92;13.35;;;;;;;-141.50;100.00;63355.56;4974802;28;20069;-82
2021/10/11 07:44:44;;;;;;;28.00;13.65;;;;;;;-141.50;100.00;63355.56;4980962;28;20051;-84
2021/10/11 07:47:11;;;;;;;33.95;14.27;;;;;;;-141.50;100.00;63355.56;4964412;28;20587;-83
2021/10/11 07:49:37;;;;;;;28.33;14.43;;;;;;;-141.50;100.00;63355.56;4976352;28;20430;-83
2021/10/11 07:52:04;;;;;;;28.70;14.20;;;;;;;-141.50;100.00;63355.56;4975561;28;20142;-81
2021/10/11 07:54:31;;;;;;;30.58;14.70;;;;;;;-141.50;100.00;63355.56;4974903;28;20051;-81
2021/10/11 07:56:58;;;;;;;32.80;15.48;;;;;;;-141.50;100.00;63355.56;4974374;28;20054;-81
2021/10/11 07:59:27;;;;;;;28.42;14.65;;;;;;;-141.50;100.00;63355.56;4976788;28;20053;-84
2021/10/11 08:01:54;;;;;;;26.80;13.75;;;;;;;-141.50;100.00;63355.56;4976469;28;20050;-83
2021/10/11 08:04:21;;;;;;;31.05;14.93;;;;;;;-141.50;100.00;63355.56;4978109;28;20638;-80
2021/10/11 08:06:48;;;;;;;26.85;14.48;;;;;;;-141.50;100.00;63355.56;4972308;28;20102;-82
2021/10/11 08:09:15;;;;;;;27.65;14.38;;;;;;;-141.50;100.00;63355.56;4971888;28;20034;-83
2021/10/11 08:11:43;;;;;;;31.80;16.73;;;;;;;-141.50;100.00;63355.56;4975237;28;20056;-78
2021/10/11 08:14:10;;;;;;;32.65;14.63;;;;;;;-141.50;100.00;63355.56;4978434;28;20487;-80
2021/10/11 08:16:40;;;;;;;28.08;14.02;;;;;;;-141.50;100.00;63355.56;4973615;28;20328;-79
2021/10/11 08:19:09;;;;;;;29.05;15.48;;;;;;;-141.50;100.00;63355.56;4974463;28;20047;-83
2021/10/11 08:21:36;;;;;;;34.95;15.35;;;;;;;-141.50;100.00;63355.56;4973612;28;20050;-83
2021/10/11 08:24:04;;;;;;;32.40;15.82;;;;;;;-141.50;100.00;63355.56;4961428;28;20466;-79
2021/10/11 08:26:32;;;;;;;41.35;15.90;;;;;;;-141.50;100.00;63355.56;4975644;28;20470;-83
2021/10/11 08:29:02;;;;;;;36.95;14.88;;;;;;;-141.50;100.00;63355.56;4958240;28;20054;-82
2021/10/11 08:31:29;;;;;;;31.98;16.30;;;;;;;-141.50;100.00;63355.56;4972962;28;20035;-81
2021/10/11 08:33:56;;;;;;;34.17;16.38;;;;;;;-141.50;100.00;63355.56;4974243;28;20158;-81
2021/10/11 08:36:22;;;;;;;34.45;16.42;;;;;;;-141.50;100.00;63355.56;4973886;28;20050;-80
2021/10/11 08:38:49;;;;;;;30.05;16.80;;;;;;;-141.50;100.00;63355.56;4974469;28;20043;-81
2021/10/11 08:41:15;;;;;;;32.92;16.13;;;;;;;-141.50;100.00;63355.56;4975469;28;20039;-83
2021/10/11 08:43:44;;;;;;;33.22;16.80;;;;;;;-141.50;100.00;63355.56;4977612;28;20069;-83
2021/10/11 08:46:11;;;;;;;36.05;17.02;;;;;;;-141.50;100.00;63355.56;4979702;28;20042;-81
2021/10/11 08:48:39;;;;;;;40.78;21.25;;;;;;;-141.50;100.00;63355.56;4958683;28;20634;-79
2021/10/11 08:51:07;;;;;;;31.80;16.77;;;;;;;-141.50;100.00;63355.56;4975593;28;20039;-79
2021/10/11 08:53:35;;;;;;;34.40;18.65;;;;;;;-141.50;100.00;63355.56;4974696;28;20039;-81
2021/10/11 08:56:01;;;;;;;37.85;18.98;;;;;;;-141.50;100.00;63355.56;4976236;28;20094;-79
2021/10/11 08:58:39;;;;;;;40.80;20.30;;;;;;;-141.50;100.00;63355.56;4976855;28;20042;-80
2021/10/11 09:01:07;;;;;;;37.97;20.35;;;;;;;-141.50;100.00;63355.56;4976663;28;20066;-79
2021/10/11 09:03:34;;;;;;;40.28;20.58;;;;;;;-141.50;100.00;63355.56;4977440;28;20043;-80
2021/10/11 09:06:08;;;;;;;37.42;19.70;;;;;;;-141.50;100.00;63355.56;4976713;28;20077;-79
2021/10/11 09:08:36;;;;;;;48.10;21.65;;;;;;;-141.50;100.00;63355.56;4976105;28;20459;-79
2021/10/11 09:11:09;;;;;;;41.90;20.27;;;;;;;-141.50;100.00;63355.56;4977025;28;20392;-81
2021/10/11 09:13:41;;;;;;;38.65;21.05;;;;;;;-141.50;100.00;63355.56;4959189;28;20047;-80
2021/10/11 09:16:10;;;;;;;37.78;20.15;;;;;;;-141.50;100.00;63355.56;4943164;28;20061;-80
2021/10/11 09:18:41;;;;;;;39.63;20.15;;;;;;;-141.50;100.00;63355.56;4976755;28;20042;-81
2021/10/11 09:21:08;;;;;;;42.78;21.38;;;;;;;-141.50;100.00;63355.56;4959563;28;20047;-80
2021/10/11 09:23:35;;;;;;;44.60;21.40;;;;;;;-141.50;100.00;63355.56;4976745;28;20073;-82
2021/10/11 09:26:14;;;;;;;46.58;22.67;;;;;;;-141.50;100.00;63355.56;4978406;28;20547;-78
2021/10/11 09:28:50;;;;;;;42.38;22.20;;;;;;;-141.50;100.00;63355.56;4979486;28;20043;-82
2021/10/11 09:31:18;;;;;;;40.90;21.90;;;;;;;-141.50;100.00;63355.56;4956927;28;20055;-79
2021/10/11 09:33:45;;;;;;;42.47;22.20;;;;;;;-141.50;100.00;63355.56;4975109;28;20495;-81
2021/10/11 09:36:20;;;;;;;42.58;22.63;;;;;;;-141.50;100.00;63355.56;4976516;28;20050;-82
2021/10/11 09:38:57;;;;;;;44.45;22.65;;;;;;;-141.50;100.00;63355.56;4960685;28;20110;-81
2021/10/11 09:41:23;;;;;;;;;;;;;;;-141.50;100.00;63355.56;4975929;28;20046;-79
2021/10/11 09:43:50;;;;;;;42.88;21.42;;;;;;;-141.50;100.00;63355.56;4958500;28;20035;-81
2021/10/11 09:46:18;;;;;;;40.92;22.48;;;;;;;-141.50;100.00;63355.56;4974601;28;20526;-80
2021/10/11 09:48:55;;;;;;;42.80;21.88;;;;;;;-141.50;100.00;63355.56;4978414;28;20062;-79
2021/10/11 09:51:24;;;;;;;45.17;23.20;;;;;;;-141.50;100.00;63355.56;4977573;28;20127;-83
2021/10/11 09:53:54;;;;;;;42.90;23.15;;;;;;;-141.50;100.00;63355.56;4980582;28;20607;-79
2021/10/11 09:56:25;;;;;;;47.33;24.10;;;;;;;-141.50;100.00;63355.56;4979887;28;20086;-79
2021/10/11 09:58:54;;;;;;;49.42;23.95;;;;;;;-141.50;100.00;63355.56;4987873;28;20129;-82
2021/10/11 10:01:23;;;;;;;46.08;24.38;;;;;;;-141.50;100.00;63355.56;4988408;28;20046;-76
2021/10/11 10:03:53;;;;;;;54.40;23.98;;;;;;;-141.50;100.00;63355.56;4956765;28;20101;-82
2021/10/11 10:06:23;;;;;;;44.72;23.58;;;;;;;-141.50;100.00;63355.56;4975505;28;20055;-80
2021/10/11 10:08:55;;;;;;;48.05;24.30;;;;;;;-141.50;100.00;63355.56;4960964;28;20050;-80
2021/10/11 10:11:28;;;;;;;46.53;23.92;;;;;;;-141.50;100.00;63355.56;4977890;28;20054;-83
2021/10/11 10:13:55;;;;;;;44.58;23.73;;;;;;;-141.50;100.00;63355.56;4958726;28;20455;-82
2021/10/11 10:16:22;;;;;;;42.70;23.08;;;;;;;-141.50;100.00;63355.56;4970744;28;20050;-81
2021/10/11 10:18:48;;;;;;;49.85;24.63;;;;;;;-141.50;100.00;63355.56;4989886;28;20054;-80
2021/10/11 10:21:16;;;;;;;50.90;23.85;;;;;;;-141.50;100.00;63355.56;4988687;28;20050;-82
2021/10/11 10:23:54;;;;;;;48.20;24.88;;;;;;;-141.50;100.00;63355.56;4991199;28;20054;-81
2021/10/11 10:26:35;;;;;;;46.80;24.75;;;;;;;-141.50;100.00;63355.56;4990394;28;20042;-80
2021/10/11 10:29:13;;;;;;;49.25;25.20;;;;;;;-141.50;100.00;63355.56;4972108;28;20503;-79
2021/10/11 10:31:41;;;;;;;49.80;24.52;;;;;;;-141.50;100.00;63355.56;4968591;28;20423;-77
2021/10/11 10:34:16;;;;;;;47.17;24.05;;;;;;;-141.50;100.00;63355.56;4969049;28;20054;-77
2021/10/11 10:36:44;;;;;;;59.70;26.05;;;;;;;-141.50;100.00;63355.56;4974247;28;20046;-77
2021/10/11 10:39:14;;;;;;;49.15;25.80;;;;;;;-141.50;100.00;63355.56;4964264;23;20407;-80
2021/10/11 10:41:54;;;;;;;49.90;25.73;;;;;;;-141.50;100.00;63355.56;4949391;28;20082;-84
2021/10/11 10:44:21;;;;;;;59.95;28.55;;;;;;;-141.50;100.00;63355.56;4949189;28;20460;-83
2021/10/11 10:46:53;;;;;;;58.83;30.67;;;;;;;-141.50;100.00;63355.56;4960138;28;20108;-85
2021/10/11 10:49:42;;;;;;;64.75;29.52;;;;;;;-141.50;100.00;63355.56;4964991;28;20097;-85
2021/10/11 10:52:19;;;;;;;62.15;30.85;;;;;;;-141.50;100.00;63355.56;4942706;28;20051;-85
2021/10/11 10:54:57;;;;;;;62.53;30.20;;;;;;;-141.50;100.00;63355.56;4948683;28;20579;-84
2021/10/11 10:57:31;;;;;;;68.70;32.50;;;;;;;-141.50;100.00;63355.56;4939082;28;20063;-85
2021/10/11 11:00:01;;;;;;;67.50;32.72;;;;;;;-141.50;100.00;63355.56;4945571;29;20039;-84
2021/10/11 11:02:32;;;;;;;68.70;32.80;;;;;;;-141.50;100.00;63355.56;4928827;28;20298;-84